createdAt,value
2024-04-12T00:00:01.214Z,13.5
2024-04-12T00:15:01.024Z,13.5
2024-04-12T00:30:01.348Z,13.5
2024-04-12T00:45:00.338Z,13.6
2024-04-12T01:00:01.396Z,13.6
2024-04-12T01:15:01.014Z,13.6
2024-04-12T01:30:01.301Z,13.6
2024-04-12T01:45:00.510Z,13.6
2024-04-12T02:00:00.859Z,13.6
2024-04-12T02:15:00.675Z,13.6
2024-04-12T02:30:00.744Z,13.6
2024-04-12T02:45:00.249Z,13.6
2024-04-12T03:00:00.835Z,13.6
2024-04-12T03:15:00.250Z,13.6
2024-04-12T03:30:00.458Z,13.6
2024-04-12T03:45:00.249Z,13.6
2024-04-12T04:00:00.855Z,13.6
2024-04-12T04:15:00.812Z,13.6
2024-04-12T04:30:00.538Z,13.6
2024-04-12T04:45:00.302Z,13.6
2024-04-12T05:00:01.014Z,13.6
2024-04-12T05:15:01.299Z,13.6
2024-04-12T05:30:00.552Z,13.6
2024-04-12T05:45:00.371Z,13.7
2024-04-12T06:00:03.328Z,13.8
2024-04-12T06:15:00.323Z,13.8
2024-04-12T06:30:01.198Z,13.6
2024-04-12T06:45:00.471Z,13.6
2024-04-12T07:00:00.977Z,13.7
2024-04-12T07:15:00.836Z,13.9
2024-04-12T07:30:00.583Z,13.9
2024-04-12T07:45:00.362Z,14
2024-04-12T08:00:01.617Z,14.2
2024-04-12T08:15:00.790Z,14.2
2024-04-12T08:30:00.517Z,14.4
2024-04-12T08:45:00.314Z,14.5
2024-04-12T09:00:01.257Z,14.9
2024-04-12T09:15:00.925Z,15.3
2024-04-12T09:30:00.593Z,15.7
2024-04-12T09:45:00.416Z,16.3
2024-04-12T10:00:00.817Z,16.4
2024-04-12T10:15:00.680Z,16.6
2024-04-12T10:30:00.715Z,16.8
2024-04-12T10:45:00.585Z,16.9
2024-04-12T11:00:00.760Z,16.9
2024-04-12T11:15:00.951Z,17.3
2024-04-12T11:30:00.750Z,17.5
2024-04-12T11:45:00.715Z,17.5
2024-04-12T12:00:01.460Z,17.7
2024-04-12T12:15:00.846Z,18.2
2024-04-12T12:30:00.340Z,18.5
2024-04-12T12:45:00.415Z,18.5
2024-04-12T13:00:01.997Z,18.7
2024-04-12T13:15:00.628Z,18.9
2024-04-12T13:30:00.504Z,18.9
2024-04-12T13:45:00.397Z,18.5
2024-04-12T14:00:01.931Z,19.2
2024-04-12T14:15:00.623Z,19.7
2024-04-12T14:30:00.799Z,19.8
2024-04-12T14:45:00.319Z,20.1
2024-04-12T15:00:01.125Z,20
2024-04-12T15:15:00.517Z,19.8
2024-04-12T15:30:01.147Z,20
2024-04-12T15:45:00.419Z,19.7
2024-04-12T16:00:00.951Z,19.5
2024-04-12T16:15:00.384Z,19.8
2024-04-12T16:30:00.675Z,19.9
2024-04-12T16:45:00.862Z,19.6
2024-04-12T17:00:01.423Z,19.7
2024-04-12T17:15:00.648Z,19.4
2024-04-12T17:30:00.906Z,19.3
2024-04-12T17:45:00.549Z,18.8
2024-04-12T18:00:00.757Z,18.8
2024-04-12T18:15:00.608Z,18.4
2024-04-12T18:30:00.877Z,18.2
2024-04-12T18:45:00.501Z,17.6
2024-04-12T19:00:04.931Z,17.4
2024-04-12T19:15:00.486Z,17.4
2024-04-12T19:30:00.499Z,17.5
2024-04-12T19:45:00.399Z,16.9
2024-04-12T20:00:01.013Z,16.9
2024-04-12T20:15:00.478Z,16.9
2024-04-12T20:30:00.807Z,16.6
2024-04-12T20:45:00.401Z,16.4
2024-04-12T22:00:00.578Z,15.8
2024-04-12T22:15:01.258Z,15.5
2024-04-12T22:30:00.667Z,15
2024-04-12T22:45:01.516Z,15
2024-04-12T23:00:00.907Z,14.8
2024-04-12T23:15:00.370Z,14.8
2024-04-12T23:30:00.336Z,15
2024-04-12T23:45:00.307Z,14.8
